Terminal Aerodrome Forecast
Issued by NWS

Home | Current Version | Previous Version | Text Only | Print | Product List | Glossary On
Versions: 1 2 3 4 5 6 7 8 9 10 11 12 13 14 15
000
FTUS42 TJSJ 191700
TAFIST
TAF
TIST 191734Z 1918/2018 07008KT P6SM FEW025 SCT040 BKN070
     FM192300 07008KT P6SM FEW025
     FM201500 09013KT P6SM SCT030=

USA.gov is the U.S. government's official web portal to all federal, state and local government web resources and services.